Cruz Bay, Virgin Islands
Current Conditions -  °F | °C
As of 10:00 AM on Wednesday 22 Oct 2014 (Local Time) from TUPJ Reporting Station
Scattered Clouds Scattered Clouds  
Wind Chill: 86°   Ceiling: Unl
Heat Index: 95°   Visibility: 6mi
Dew Point: 75°   Wind: 8mph
Humidity: 70%   Direction: 130°SE
Pressure: 30"   Gusts: NA
Location:  18.3333°N, 64.7943°W
Report Text: TUPJ 221400Z 13007KT 9999 SCT019 30/24 Q1016 RMK A3000
Loading
Personal Weather Stations






























Interactive Weather Map
Tropical Storm Tracking
New forecast layout! Learn more

10-Day Weather Forecast

Advertisements
Track Severe Weather on mobile